Time;durP1;ratioP1;P1;durP2;ratioP2;P2;SDS_P1;SDS_P2;PMS_P1;PMS_P2;Temp;Humidity;BMP_temperature;BMP_pressure;BME280_temperature;BME280_humidity;BME280_pressure;Samples;Min_cycle;Max_cycle;Signal;HPM_P1;HPM_P2
2023/08/11 00:00:08;;;;;;;1.55;1.20;;;;;;;18.17;75.68;99925.53;339881;28;5524;-62
2023/08/11 00:00:23;;;;;;;1.63;1.20;;;;;;;18.19;75.79;99925.41;335602;28;17739;-62
2023/08/11 00:00:36;;;;;;;1.25;1.08;;;;;;;18.19;75.53;99922.78;336584;28;17959;-61
2023/08/11 00:00:48;;;;;;;1.15;1.05;;;;;;;18.19;75.99;99923.66;337834;28;18061;-62
2023/08/11 00:01:01;;;;;;;1.30;1.10;;;;;;;18.19;75.89;99926.28;340097;28;4711;-62
2023/08/11 00:01:13;;;;;;;2.80;1.20;;;;;;;18.19;75.71;99918.41;337519;28;18117;-63
2023/08/11 00:01:25;;;;;;;2.47;1.00;;;;;;;18.20;75.66;99917.44;339671;28;4664;-62
2023/08/11 00:01:37;;;;;;;2.28;1.08;;;;;;;18.20;75.71;99921.88;337722;28;18163;-62
2023/08/11 00:01:49;;;;;;;1.20;1.10;;;;;;;18.22;75.56;99925.25;340632;28;4513;-62
2023/08/11 00:02:05;;;;;;;1.27;1.10;;;;;;;18.22;75.39;99920.84;340414;28;4734;-64
2023/08/11 00:02:17;;;;;;;1.13;0.95;;;;;;;18.19;75.55;99918.41;339833;28;17826;-62
2023/08/11 00:02:29;;;;;;;1.10;1.00;;;;;;;18.19;75.18;99921.03;337544;28;18578;-62
2023/08/11 00:02:42;;;;;;;1.20;1.08;;;;;;;18.20;75.15;99925.34;340651;28;5113;-61
2023/08/11 00:02:54;;;;;;;1.17;1.00;;;;;;;18.20;75.45;99922.72;337616;28;18101;-62
2023/08/11 00:03:06;;;;;;;1.48;1.10;;;;;;;18.20;75.10;99922.72;340589;28;5368;-63
2023/08/11 00:03:18;;;;;;;1.38;1.05;;;;;;;18.20;74.99;99922.72;337123;28;18133;-63
2023/08/11 00:03:30;;;;;;;1.63;1.10;;;;;;;18.20;75.18;99922.72;339431;28;4655;-62
2023/08/11 00:03:43;;;;;;;2.17;1.15;;;;;;;18.17;75.48;99922.91;337406;28;11721;-62
2023/08/11 00:03:55;;;;;;;1.88;1.10;;;;;;;18.19;75.26;99921.03;339393;28;4644;-61
2023/08/11 00:04:08;;;;;;;1.70;1.10;;;;;;;18.19;75.34;99921.03;337081;28;16430;-62
2023/08/11 00:04:20;;;;;;;1.65;1.15;;;;;;;18.20;75.52;99922.72;339798;28;5030;-61
2023/08/11 00:04:32;;;;;;;2.00;1.40;;;;;;;18.20;75.21;99922.72;339641;28;4560;-60
2023/08/11 00:04:44;;;;;;;1.77;1.25;;;;;;;18.21;74.95;99924.41;338097;28;18004;-61
2023/08/11 00:04:57;;;;;;;1.70;1.20;;;;;;;18.21;75.29;99918.28;340361;28;4681;-61
2023/08/11 00:05:09;;;;;;;1.40;1.15;;;;;;;18.20;75.26;99917.44;336288;28;16422;-63
2023/08/11 00:05:20;;;;;;;1.23;1.13;;;;;;;18.19;74.89;99921.03;339866;28;4661;-63
2023/08/11 00:05:40;;;;;;;1.55;1.02;;;;;;;18.19;75.33;99921.03;339797;28;4547;-63
2023/08/11 00:05:55;;;;;;;1.80;1.10;;;;;;;18.17;75.43;99921.13;338183;28;18697;-61
2023/08/11 00:06:07;;;;;;;3.35;1.33;;;;;;;18.19;75.42;99925.41;337552;28;18051;-62
2023/08/11 00:06:19;;;;;;;3.33;1.33;;;;;;;18.19;75.24;99921.03;332488;28;11838;-64
2023/08/11 00:06:31;;;;;;;3.22;1.30;;;;;;;18.21;75.27;99919.16;340593;28;4673;-63
2023/08/11 00:06:44;;;;;;;2.58;1.05;;;;;;;18.20;75.20;99921.88;336577;28;11688;-64
2023/08/11 00:06:56;;;;;;;2.53;0.90;;;;;;;18.19;75.47;99915.78;339963;28;5276;-62
2023/08/11 00:07:09;;;;;;;1.58;1.00;;;;;;;18.19;75.39;99926.28;338001;28;11960;-64
2023/08/11 00:07:21;;;;;;;1.40;1.10;;;;;;;18.20;75.44;99925.34;339409;28;5558;-62
2023/08/11 00:07:34;;;;;;;1.40;1.15;;;;;;;18.18;75.52;99919.31;337800;28;12023;-64
2023/08/11 00:07:50;;;;;;;1.20;1.10;;;;;;;18.21;75.50;99926.19;340651;28;4506;-63
2023/08/11 00:08:04;;;;;;;1.30;1.10;;;;;;;18.21;75.68;99924.41;337873;28;17884;-64
2023/08/11 00:08:17;;;;;;;1.75;1.30;;;;;;;18.22;75.65;99923.47;337354;28;17806;-61
2023/08/11 00:08:29;;;;;;;1.83;1.40;;;;;;;18.22;75.49;99918.19;340291;28;5566;-62
2023/08/11 00:08:41;;;;;;;1.67;1.30;;;;;;;18.22;75.76;99920.84;337972;28;18146;-64
2023/08/11 00:08:53;;;;;;;1.83;1.15;;;;;;;18.20;75.17;99922.72;340502;28;4633;-63
2023/08/11 00:09:08;;;;;;;1.70;1.10;;;;;;;18.20;75.65;99927.13;337996;28;18153;-63
2023/08/11 00:09:20;;;;;;;2.08;1.13;;;;;;;18.21;75.61;99921.78;337184;28;18036;-62
2023/08/11 00:09:33;;;;;;;2.10;1.10;;;;;;;18.21;75.60;99924.41;339930;28;4621;-62
2023/08/11 00:09:44;;;;;;;2.65;1.20;;;;;;;18.22;75.28;99926.09;337902;28;16257;-63
2023/08/11 00:09:57;;;;;;;2.10;1.20;;;;;;;18.23;75.21;99926.94;340600;28;5288;-63
2023/08/11 00:10:09;;;;;;;2.22;1.30;;;;;;;18.24;75.21;99929.47;340385;28;4652;-63
2023/08/11 00:10:21;;;;;;;1.63;1.20;;;;;;;18.25;75.37;99925.91;337013;28;18062;-62
2023/08/11 00:10:34;;;;;;;1.48;0.90;;;;;;;18.26;75.11;99929.41;339971;28;4722;-64
2023/08/11 00:10:46;;;;;;;1.52;0.90;;;;;;;18.26;75.16;99919.72;337665;28;18026;-63
2023/08/11 00:10:59;;;;;;;1.38;0.98;;;;;;;18.26;75.55;99926.75;335859;28;4550;-63
2023/08/11 00:11:12;;;;;;;1.52;0.95;;;;;;;18.27;75.34;99928.44;338449;28;4685;-62
2023/08/11 00:11:24;;;;;;;2.60;1.00;;;;;;;18.23;75.05;99925.16;339742;28;4687;-62
2023/08/11 00:11:36;;;;;;;2.40;1.00;;;;;;;18.17;74.92;99926.38;337810;28;12359;-63
2023/08/11 00:11:50;;;;;;;1.40;1.00;;;;;;;18.16;75.20;99927.31;340456;28;4689;-62
2023/08/11 00:12:02;;;;;;;1.63;1.00;;;;;;;18.16;75.06;99926.47;336685;28;18497;-63
2023/08/11 00:12:14;;;;;;;1.85;1.20;;;;;;;18.14;74.90;99929.19;338733;28;5163;-62
2023/08/11 00:12:26;;;;;;;1.73;1.23;;;;;;;18.12;74.93;99925.78;337810;28;5471;-61
2023/08/11 00:12:39;;;;;;;1.58;1.20;;;;;;;18.08;74.99;99933.97;340331;28;4668;-61
2023/08/11 00:12:51;;;;;;;1.88;1.20;;;;;;;18.09;75.07;99935.66;337765;28;11779;-65
2023/08/11 00:13:03;;;;;;;1.80;1.10;;;;;;;18.11;74.89;99928.50;340537;28;4710;-61
2023/08/11 00:13:15;;;;;;;1.42;1.08;;;;;;;18.13;75.22;99931.91;337746;28;11067;-62
2023/08/11 00:13:27;;;;;;;1.10;1.00;;;;;;;18.10;75.71;99927.66;340147;28;4570;-61
2023/08/11 00:13:40;;;;;;;1.10;1.00;;;;;;;18.09;75.54;99930.38;340419;28;5375;-62
2023/08/11 00:13:52;;;;;;;1.10;1.00;;;;;;;18.10;75.36;99926.81;332690;28;19300;-61
2023/08/11 00:14:04;;;;;;;1.60;1.20;;;;;;;18.10;75.72;99929.47;339151;28;5872;-61
2023/08/11 00:14:16;;;;;;;1.67;1.17;;;;;;;18.08;75.96;99923.44;339429;28;4657;-64
2023/08/11 00:14:28;;;;;;;1.70;1.20;;;;;;;18.08;75.99;99924.28;334786;28;17468;-62
2023/08/11 00:14:40;;;;;;;1.42;1.10;;;;;;;18.08;75.90;99931.34;340167;28;4656;-63
2023/08/11 00:14:52;;;;;;;1.25;1.10;;;;;;;18.08;76.01;99933.97;337574;28;18096;-62
2023/08/11 00:15:06;;;;;;;1.40;1.27;;;;;;;18.07;76.11;99932.25;340668;28;4634;-61
2023/08/11 00:15:18;;;;;;;1.40;1.30;;;;;;;18.07;76.48;99937.53;336803;28;18299;-65
2023/08/11 00:15:31;;;;;;;1.73;1.30;;;;;;;18.07;76.32;99932.25;339393;28;4677;-62
2023/08/11 00:15:43;;;;;;;1.70;1.30;;;;;;;18.06;76.04;99930.59;337949;28;18298;-64
2023/08/11 00:15:56;;;;;;;1.50;1.20;;;;;;;18.06;75.75;99925.31;340386;28;5211;-63
2023/08/11 00:16:08;;;;;;;1.38;1.15;;;;;;;18.08;75.96;99928.72;337959;28;18123;-63
2023/08/11 00:16:20;;;;;;;1.42;1.10;;;;;;;18.06;76.25;99928.78;339881;28;4810;-62
2023/08/11 00:16:32;;;;;;;1.52;1.20;;;;;;;18.08;76.17;99931.34;340010;28;18538;-63
2023/08/11 00:16:44;;;;;;;1.52;1.20;;;;;;;18.08;75.96;99936.59;332069;28;17936;-63
2023/08/11 00:16:58;;;;;;;1.60;1.20;;;;;;;18.09;75.79;99925.13;338690;28;4694;-63
2023/08/11 00:17:10;;;;;;;1.20;1.10;;;;;;;18.09;75.33;99927.75;336577;28;17980;-63
2023/08/11 00:17:22;;;;;;;1.10;0.95;;;;;;;18.08;75.37;99923.44;337540;28;12308;-63
2023/08/11 00:17:34;;;;;;;1.17;1.00;;;;;;;18.07;75.42;99927.00;340101;28;5374;-63
2023/08/11 00:17:47;;;;;;;1.55;1.05;;;;;;;18.07;75.33;99932.25;340505;28;5128;-62
2023/08/11 00:18:02;;;;;;;2.08;1.15;;;;;;;18.06;75.36;99930.59;337760;28;18314;-63
2023/08/11 00:18:15;;;;;;;1.75;1.13;;;;;;;18.07;75.75;99929.63;337591;28;18030;-63
2023/08/11 00:18:27;;;;;;;1.40;1.17;;;;;;;18.07;75.95;99924.38;337573;28;11959;-63
2023/08/11 00:18:42;;;;;;;1.60;1.20;;;;;;;18.05;76.02;99919.22;339291;28;4665;-63
2023/08/11 00:18:54;;;;;;;1.40;1.10;;;;;;;18.06;75.69;99925.31;337413;28;18025;-62
2023/08/11 00:19:06;;;;;;;1.50;1.13;;;;;;;18.05;75.64;99924.47;339736;28;5515;-62
2023/08/11 00:19:18;;;;;;;3.45;1.30;;;;;;;18.04;75.65;99933.28;336394;28;11703;-63
2023/08/11 00:19:30;;;;;;;3.97;1.40;;;;;;;18.04;75.64;99927.19;340024;28;4663;-63
2023/08/11 00:19:42;;;;;;;3.88;1.40;;;;;;;18.04;75.48;99927.19;334352;28;5248;-63
2023/08/11 00:19:54;;;;;;;1.48;1.20;;;;;;;18.06;75.62;99930.59;337609;28;18303;-63
2023/08/11 00:20:08;;;;;;;1.23;1.02;;;;;;;18.07;75.58;99924.38;339702;28;5133;-63
2023/08/11 00:20:20;;;;;;;1.80;1.20;;;;;;;18.02;75.25;99919.38;333599;28;16716;-63
2023/08/11 00:20:32;;;;;;;1.95;1.20;;;;;;;18.00;75.46;99926.53;340193;28;5029;-63
2023/08/11 00:20:45;;;;;;;2.53;1.25;;;;;;;18.01;75.37;99924.72;337876;28;9140;-63
2023/08/11 00:20:59;;;;;;;2.28;1.15;;;;;;;18.02;75.43;99918.56;340469;28;6594;-63
2023/08/11 00:21:12;;;;;;;1.80;1.15;;;;;;;18.03;75.67;99925.47;336740;28;18244;-63
2023/08/11 00:21:24;;;;;;;1.50;1.10;;;;;;;18.02;75.68;99918.56;334739;28;5133;-63
2023/08/11 00:21:36;;;;;;;1.48;1.20;;;;;;;18.02;75.90;99927.28;340206;28;4632;-63
2023/08/11 00:21:48;;;;;;;1.40;1.20;;;;;;;18.03;75.64;99925.47;337348;28;11952;-63
2023/08/11 00:22:00;;;;;;;1.38;1.17;;;;;;;18.05;75.39;99918.34;340353;28;4514;-63
2023/08/11 00:22:12;;;;;;;1.30;1.00;;;;;;;18.05;75.34;99915.72;339555;28;4680;-62
2023/08/11 00:22:24;;;;;;;1.40;1.10;;;;;;;18.05;75.38;99918.34;337924;28;18372;-63
2023/08/11 00:22:37;;;;;;;2.63;1.20;;;;;;;18.06;75.43;99917.44;335502;28;4638;-63
2023/08/11 00:22:49;;;;;;;3.63;1.30;;;;;;;18.03;75.91;99920.22;337865;28;12081;-64
2023/08/11 00:23:01;;;;;;;2.33;1.10;;;;;;;18.02;75.91;99918.56;340560;28;4724;-63
2023/08/11 00:23:13;;;;;;;1.40;1.10;;;;;;;18.04;75.87;99916.66;339854;28;4624;-63
2023/08/11 00:23:26;;;;;;;1.50;1.10;;;;;;;18.02;76.06;99923.81;337320;28;18500;-63
2023/08/11 00:23:39;;;;;;;1.58;1.20;;;;;;;18.01;75.66;99924.72;339968;28;5377;-63
2023/08/11 00:23:51;;;;;;;1.65;1.20;;;;;;;18.00;75.61;99925.69;337785;28;18322;-63
2023/08/11 00:24:04;;;;;;;1.83;1.30;;;;;;;18.00;75.87;99920.44;340568;28;5492;-64
2023/08/11 00:24:17;;;;;;;1.80;1.35;;;;;;;17.99;76.20;99921.34;337231;28;20613;-62
2023/08/11 00:24:28;;;;;;;2.10;1.35;;;;;;;17.98;75.99;99917.03;339503;28;4672;-63
2023/08/11 00:24:40;;;;;;;2.63;1.30;;;;;;;17.98;76.03;99922.31;337682;28;18250;-62
2023/08/11 00:24:52;;;;;;;2.60;1.40;;;;;;;18.01;75.90;99919.47;339849;28;6436;-63
2023/08/11 00:25:05;;;;;;;2.60;1.60;;;;;;;17.99;76.10;99919.59;336965;28;12287;-62
2023/08/11 00:25:17;;;;;;;1.95;1.42;;;;;;;17.98;76.03;99911.78;339529;28;5221;-64
2023/08/11 00:25:29;;;;;;;2.10;1.35;;;;;;;17.96;75.89;99915.31;339194;28;4746;-63
2023/08/11 00:25:41;;;;;;;1.80;1.10;;;;;;;17.97;75.90;99921.47;335342;28;5166;-63
2023/08/11 00:25:53;;;;;;;1.70;1.20;;;;;;;17.94;76.11;99921.63;340617;28;4661;-64
2023/08/11 00:26:06;;;;;;;1.35;1.08;;;;;;;17.92;76.50;99919.06;338031;28;11934;-63
2023/08/11 00:26:18;;;;;;;1.60;1.20;;;;;;;17.93;76.41;99919.94;339854;28;4570;-62
2023/08/11 00:26:30;;;;;;;1.38;1.17;;;;;;;17.92;76.59;99916.44;339239;28;4594;-63
2023/08/11 00:26:42;;;;;;;1.50;1.10;;;;;;;17.87;76.70;99921.16;338001;28;18413;-63
2023/08/11 00:26:54;;;;;;;1.70;1.20;;;;;;;17.90;76.63;99914.84;339068;28;4552;-62
2023/08/11 00:27:06;;;;;;;1.48;1.30;;;;;;;17.91;76.79;99920.03;336592;28;18330;-62
2023/08/11 00:27:19;;;;;;;1.63;1.27;;;;;;;17.94;76.33;99921.63;339277;28;4702;-63
2023/08/11 00:27:31;;;;;;;1.75;1.30;;;;;;;17.95;76.30;99913.66;337787;28;18176;-62
2023/08/11 00:27:43;;;;;;;1.42;1.20;;;;;;;17.99;76.22;99918.72;339272;28;4663;-63
2023/08/11 00:27:55;;;;;;;1.33;1.20;;;;;;;18.02;75.93;99913.28;336526;28;11326;-64
2023/08/11 00:28:07;;;;;;;1.50;1.20;;;;;;;17.92;76.29;99918.25;339082;28;5459;-64
2023/08/11 00:28:19;;;;;;;1.50;1.20;;;;;;;17.92;76.40;99919.06;339175;28;7706;-63
2023/08/11 00:28:32;;;;;;;1.90;1.27;;;;;;;17.94;76.32;99916.38;338050;28;4714;-63
2023/08/11 00:28:44;;;;;;;1.70;1.20;;;;;;;17.93;76.34;99918.16;339026;28;5565;-63
2023/08/11 00:28:57;;;;;;;1.33;1.10;;;;;;;17.96;76.23;99925.00;337908;28;5374;-62
2023/08/11 00:29:09;;;;;;;1.25;1.15;;;;;;;17.96;75.92;99915.31;340381;28;5505;-62
2023/08/11 00:29:21;;;;;;;1.60;1.30;;;;;;;17.97;75.82;99916.19;340389;28;5445;-61
2023/08/11 00:29:33;;;;;;;1.63;1.30;;;;;;;17.93;76.01;99914.69;338030;28;17985;-61
2023/08/11 00:29:45;;;;;;;1.38;1.10;;;;;;;17.91;75.88;99917.41;340369;28;4764;-63
2023/08/11 00:29:58;;;;;;;1.40;1.13;;;;;;;17.90;76.15;99920.13;337780;28;17829;-63
2023/08/11 00:30:10;;;;;;;1.45;1.20;;;;;;;17.83;76.33;99918.72;339043;28;5561;-62
2023/08/11 00:30:24;;;;;;;1.60;1.33;;;;;;;17.78;76.72;99921.63;337736;28;18368;-64
2023/08/11 00:30:36;;;;;;;1.50;1.30;;;;;;;17.76;76.72;99915.63;340549;28;4698;-63
2023/08/11 00:30:51;;;;;;;1.50;1.17;;;;;;;17.79;76.67;99920.72;338008;28;18141;-63
2023/08/11 00:31:03;;;;;;;1.75;1.30;;;;;;;17.81;76.84;99920.59;337800;28;17808;-62
2023/08/11 00:31:15;;;;;;;1.80;1.40;;;;;;;17.80;76.70;99914.50;340257;28;7038;-62
2023/08/11 00:31:28;;;;;;;1.50;1.30;;;;;;;17.79;76.97;99920.72;333410;28;5198;-64
2023/08/11 00:31:40;;;;;;;1.23;1.10;;;;;;;17.77;77.07;99923.44;340230;28;4679;-62
2023/08/11 00:31:53;;;;;;;1.35;1.20;;;;;;;17.80;77.11;99919.75;340235;28;4659;-64
2023/08/11 00:32:05;;;;;;;1.55;1.20;;;;;;;17.80;76.87;99919.75;337378;28;17864;-63
2023/08/11 00:32:17;;;;;;;1.55;1.20;;;;;;;17.82;76.79;99919.69;338914;28;7674;-64
2023/08/11 00:32:29;;;;;;;2.63;1.10;;;;;;;17.81;76.85;99916.22;338522;28;18139;-62
2023/08/11 00:32:42;;;;;;;3.67;1.17;;;;;;;17.85;76.96;99923.03;338785;28;6089;-61
2023/08/11 00:32:54;;;;;;;3.17;1.20;;;;;;;17.88;76.76;99922.00;336228;28;18591;-62
2023/08/11 00:33:06;;;;;;;2.40;1.20;;;;;;;17.88;76.84;99922.81;339241;28;5175;-63
2023/08/11 00:33:18;;;;;;;2.65;1.15;;;;;;;17.88;76.76;99920.19;336641;28;7161;-63
2023/08/11 00:33:30;;;;;;;2.70;1.10;;;;;;;17.88;76.68;99922.00;339643;28;5581;-63
2023/08/11 00:33:46;;;;;;;1.60;1.20;;;;;;;17.89;76.54;99921.91;337216;28;12176;-65
2023/08/11 00:33:58;;;;;;;1.63;1.25;;;;;;;17.87;76.43;99923.78;336689;28;11472;-64
2023/08/11 00:34:10;;;;;;;2.17;1.10;;;;;;;17.83;76.18;99922.25;338879;28;4673;-64
2023/08/11 00:34:22;;;;;;;1.95;1.08;;;;;;;17.83;76.24;99919.63;334625;28;4701;-63
2023/08/11 00:34:35;;;;;;;2.15;1.25;;;;;;;17.84;76.44;99918.69;336253;28;18133;-63
2023/08/11 00:34:47;;;;;;;1.70;1.30;;;;;;;17.86;76.80;99921.22;340573;28;4662;-64
2023/08/11 00:34:59;;;;;;;1.52;1.15;;;;;;;17.86;76.72;99914.19;337353;28;7576;-62
2023/08/11 00:35:11;;;;;;;1.60;1.10;;;;;;;17.89;76.71;99915.81;338507;28;4764;-62
2023/08/11 00:35:23;;;;;;;1.55;1.10;;;;;;;17.90;76.54;99920.94;338157;28;6688;-64
2023/08/11 00:35:35;;;;;;;1.70;1.10;;;;;;;17.92;76.48;99919.06;338188;28;17573;-62
2023/08/11 00:35:47;;;;;;;1.65;1.20;;;;;;;17.94;76.51;99917.19;340457;28;4659;-62
2023/08/11 00:35:59;;;;;;;1.55;1.20;;;;;;;17.94;76.55;99911.94;337312;28;18229;-61
2023/08/11 00:36:11;;;;;;;1.92;1.40;;;;;;;17.98;76.49;99917.03;340092;28;4498;-61
2023/08/11 00:36:24;;;;;;;1.73;1.23;;;;;;;17.95;76.54;99918.91;337626;28;5322;-62
2023/08/11 00:36:36;;;;;;;1.60;1.27;;;;;;;17.95;76.11;99923.34;339618;28;4685;-63
2023/08/11 00:36:48;;;;;;;1.77;1.38;;;;;;;17.95;75.95;99916.28;339079;28;4678;-63
2023/08/11 00:37:01;;;;;;;1.95;1.40;;;;;;;17.95;76.34;99912.81;337043;28;18314;-64
2023/08/11 00:37:13;;;;;;;1.67;1.20;;;;;;;17.98;76.31;99917.88;340475;28;4652;-63
2023/08/11 00:37:26;;;;;;;2.10;1.20;;;;;;;18.00;76.44;99917.78;337927;28;17513;-62
2023/08/11 00:37:38;;;;;;;2.40;1.35;;;;;;;18.01;76.35;99911.56;340625;28;5364;-62
2023/08/11 00:37:50;;;;;;;2.38;1.40;;;;;;;18.00;76.05;99912.53;337999;28;19522;-62
2023/08/11 00:38:02;;;;;;;1.65;1.30;;;;;;;17.98;76.09;99907.34;340461;28;5467;-62
2023/08/11 00:38:14;;;;;;;1.65;1.20;;;;;;;17.99;76.15;99908.19;339726;28;11634;-64
2023/08/11 00:38:36;;;;;;;1.77;1.30;;;;;;;17.99;76.22;99909.06;337774;28;17749;-63
2023/08/11 00:38:49;;;;;;;1.65;1.30;;;;;;;17.98;76.21;99917.03;337687;28;18034;-64
2023/08/11 00:39:01;;;;;;;1.80;1.27;;;;;;;18.00;76.38;99912.53;336177;28;18166;-64
2023/08/11 00:39:13;;;;;;;1.60;1.30;;;;;;;18.02;76.22;99913.28;340374;28;4657;-63
2023/08/11 00:39:25;;;;;;;1.50;1.25;;;;;;;18.02;76.13;99910.66;340094;28;5609;-64
2023/08/11 00:39:37;;;;;;;1.17;1.08;;;;;;;17.96;75.90;99919.75;337609;28;18258;-63
2023/08/11 00:39:51;;;;;;;1.13;1.00;;;;;;;17.88;76.08;99912.31;340646;28;4667;-61
2023/08/11 00:40:04;;;;;;;1.40;1.10;;;;;;;17.86;76.20;99914.19;335949;28;18175;-62
2023/08/11 00:40:16;;;;;;;1.20;1.10;;;;;;;17.88;76.31;99906.22;337106;28;19219;-64
2023/08/11 00:40:30;;;;;;;1.42;1.00;;;;;;;17.90;76.28;99915.69;334442;28;18462;-62
2023/08/11 00:40:42;;;;;;;1.50;1.10;;;;;;;17.89;76.35;99913.19;335735;28;19060;-63
2023/08/11 00:40:54;;;;;;;1.73;1.10;;;;;;;17.91;76.39;99914.78;338749;28;5162;-63
2023/08/11 00:41:07;;;;;;;1.20;1.00;;;;;;;17.94;76.21;99917.19;337648;28;5421;-63
2023/08/11 00:41:19;;;;;;;1.20;1.10;;;;;;;17.96;76.12;99920.59;337979;28;18158;-64
2023/08/11 00:41:32;;;;;;;1.35;1.20;;;;;;;18.00;76.01;99915.16;337543;28;12775;-62
2023/08/11 00:41:45;;;;;;;1.40;1.17;;;;;;;18.01;75.60;99912.44;339112;28;5450;-63
2023/08/11 00:41:57;;;;;;;1.55;1.10;;;;;;;18.02;76.04;99911.50;336724;28;17412;-61
2023/08/11 00:42:09;;;;;;;2.85;1.30;;;;;;;18.03;76.17;99914.97;338492;28;4720;-61
2023/08/11 00:42:21;;;;;;;2.63;1.20;;;;;;;18.04;76.03;99919.31;337249;28;11808;-62
2023/08/11 00:42:33;;;;;;;1.63;1.17;;;;;;;18.07;76.00;99921.72;339202;28;4739;-61
2023/08/11 00:42:45;;;;;;;1.50;1.10;;;;;;;18.06;75.90;99915.63;340441;28;5250;-62
2023/08/11 00:42:57;;;;;;;1.60;1.10;;;;;;;18.04;75.61;99917.50;337618;28;18229;-61
2023/08/11 00:43:09;;;;;;;1.67;1.17;;;;;;;18.05;75.80;99923.59;338990;28;4721;-61
2023/08/11 00:43:21;;;;;;;1.70;1.23;;;;;;;18.05;75.86;99913.97;337190;28;11477;-63
2023/08/11 00:43:34;;;;;;;1.70;1.33;;;;;;;18.04;75.67;99922.78;340343;28;5237;-61
2023/08/11 00:43:46;;;;;;;1.52;1.30;;;;;;;18.07;75.65;99916.47;339809;28;5156;-63
2023/08/11 00:43:58;;;;;;;1.90;1.10;;;;;;;18.07;75.44;99917.34;337617;28;18452;-61
2023/08/11 00:44:09;;;;;;;1.70;1.00;;;;;;;18.08;75.51;99918.19;339333;28;4680;-60
2023/08/11 00:44:22;;;;;;;1.15;1.00;;;;;;;18.09;75.42;99922.50;336512;28;18171;-61
2023/08/11 00:44:34;;;;;;;1.60;1.00;;;;;;;18.08;75.14;99919.03;339682;28;5184;-63
2023/08/11 00:44:46;;;;;;;1.85;1.15;;;;;;;18.10;75.17;99921.56;335587;28;4685;-61
2023/08/11 00:44:59;;;;;;;1.80;1.20;;;;;;;18.08;75.30;99929.53;338108;28;17431;-61
2023/08/11 00:45:11;;;;;;;2.10;1.33;;;;;;;18.08;75.49;99918.19;340605;28;5245;-63
2023/08/11 00:45:23;;;;;;;1.90;1.38;;;;;;;18.05;75.63;99920.97;336871;28;17609;-60
2023/08/11 00:45:35;;;;;;;1.95;1.42;;;;;;;18.04;75.57;99922.78;339777;28;4693;-61
2023/08/11 00:45:49;;;;;;;1.58;1.27;;;;;;;18.06;75.55;99920.91;337877;28;16496;-62
2023/08/11 00:46:10;;;;;;;1.48;1.20;;;;;;;18.07;75.20;99917.34;339266;28;4795;-64
2023/08/11 00:46:24;;;;;;;2.45;1.20;;;;;;;18.08;75.24;99928.72;337773;28;16831;-65
2023/08/11 00:46:36;;;;;;;2.40;1.20;;;;;;;18.08;75.39;99919.03;340583;28;4565;-62
2023/08/11 00:46:48;;;;;;;1.23;1.10;;;;;;;18.09;75.08;99922.50;338237;28;4661;-63
2023/08/11 00:47:00;;;;;;;1.33;1.08;;;;;;;18.10;75.33;99926.81;340394;28;4792;-63
2023/08/11 00:47:12;;;;;;;1.70;1.10;;;;;;;18.09;75.26;99926.00;337297;28;5471;-64
2023/08/11 00:47:26;;;;;;;1.90;1.20;;;;;;;18.09;75.30;99922.50;340757;28;4642;-63
2023/08/11 00:47:42;;;;;;;1.40;1.13;;;;;;;18.09;75.21;99927.75;338040;28;12136;-64
2023/08/11 00:47:54;;;;;;;1.52;1.20;;;;;;;18.09;74.99;99920.72;336843;28;18212;-62
2023/08/11 00:48:06;;;;;;;1.85;1.30;;;;;;;18.10;75.17;99926.81;338746;28;5487;-64
2023/08/11 00:48:19;;;;;;;2.45;1.45;;;;;;;18.09;75.20;99928.63;337128;28;11698;-64
2023/08/11 00:48:31;;;;;;;2.80;1.35;;;;;;;18.07;75.62;99921.72;340444;28;5108;-63
2023/08/11 00:48:43;;;;;;;2.45;1.23;;;;;;;18.08;75.69;99928.72;340108;28;4637;-63
2023/08/11 00:48:55;;;;;;;1.13;1.00;;;;;;;18.06;75.94;99922.69;337993;28;18374;-64
2023/08/11 00:49:09;;;;;;;2.00;1.00;;;;;;;18.07;75.77;99927.00;339954;28;4679;-64
2023/08/11 00:49:21;;;;;;;2.55;1.20;;;;;;;18.07;76.10;99932.25;337289;28;18018;-63
2023/08/11 00:49:33;;;;;;;2.10;1.20;;;;;;;18.07;76.27;99932.25;340455;28;5219;-64
2023/08/11 00:49:45;;;;;;;1.52;1.10;;;;;;;18.04;76.45;99921.94;336741;28;15017;-62
2023/08/11 00:49:58;;;;;;;1.40;1.08;;;;;;;18.04;76.61;99924.56;340202;28;4894;-62
2023/08/11 00:50:12;;;;;;;1.23;1.00;;;;;;;18.05;76.29;99928.88;337655;28;18358;-61
2023/08/11 00:50:24;;;;;;;1.20;1.10;;;;;;;18.06;75.94;99928.78;339354;28;16627;-62
2023/08/11 00:50:37;;;;;;;1.23;1.10;;;;;;;18.08;75.65;99923.44;332272;28;18109;-62
2023/08/11 00:50:49;;;;;;;1.38;1.15;;;;;;;18.09;75.54;99923.34;340350;28;5238;-62
2023/08/11 00:51:01;;;;;;;1.30;1.10;;;;;;;18.07;75.98;99927.00;336487;28;18413;-64
2023/08/11 00:51:15;;;;;;;1.60;1.20;;;;;;;18.04;76.45;99927.19;340377;28;5492;-63
2023/08/11 00:51:28;;;;;;;1.95;1.40;;;;;;;17.99;76.67;99924.84;337322;28;18366;-63
2023/08/11 00:51:41;;;;;;;1.88;1.30;;;;;;;17.94;76.26;99927.72;337745;28;18300;-64
2023/08/11 00:51:54;;;;;;;1.50;1.05;;;;;;;17.92;76.22;99929.59;340348;28;4704;-61
2023/08/11 00:52:06;;;;;;;1.30;1.02;;;;;;;17.94;76.40;99925.09;338272;28;4677;-63
2023/08/11 00:52:19;;;;;;;1.40;1.27;;;;;;;17.92;76.29;99929.59;335518;28;4646;-63
2023/08/11 00:52:31;;;;;;;1.60;1.30;;;;;;;17.93;76.23;99923.41;337686;28;16380;-64
2023/08/11 00:52:45;;;;;;;1.52;1.20;;;;;;;17.92;76.30;99926.97;340383;28;4639;-63
2023/08/11 00:53:01;;;;;;;1.55;1.20;;;;;;;17.92;76.26;99924.34;337762;28;18241;-64
2023/08/11 00:53:13;;;;;;;1.60;1.23;;;;;;;17.94;76.24;99932.16;337678;28;19140;-61
2023/08/11 00:53:25;;;;;;;1.52;1.27;;;;;;;17.95;76.33;99929.44;340036;28;4721;-63
2023/08/11 00:53:37;;;;;;;2.25;1.23;;;;;;;17.93;76.13;99925.22;332211;28;18377;-64
2023/08/11 00:53:51;;;;;;;2.10;1.10;;;;;;;17.89;76.43;99921.91;339874;28;4679;-64
2023/08/11 00:54:06;;;;;;;1.30;1.10;;;;;;;17.85;76.15;99925.66;336673;28;19189;-63
2023/08/11 00:54:19;;;;;;;1.30;1.20;;;;;;;17.82;76.59;99922.31;337062;28;17882;-61
2023/08/11 00:54:31;;;;;;;1.42;1.25;;;;;;;17.82;76.34;99923.16;336322;28;10267;-63
2023/08/11 00:54:43;;;;;;;1.85;1.38;;;;;;;17.82;76.39;99928.41;340021;28;5181;-62
2023/08/11 00:54:59;;;;;;;2.08;1.42;;;;;;;17.84;76.78;99934.47;337734;28;18098;-64
2023/08/11 00:55:12;;;;;;;1.80;1.40;;;;;;;17.81;76.73;99926.72;340346;28;5157;-64
2023/08/11 00:55:24;;;;;;;1.70;1.35;;;;;;;17.83;76.59;99930.16;337080;28;18118;-62
2023/08/11 00:55:37;;;;;;;1.50;1.20;;;;;;;17.85;76.47;99928.28;337762;28;12603;-64
2023/08/11 00:55:49;;;;;;;2.22;1.05;;;;;;;17.86;76.44;99929.13;340410;28;4644;-64
2023/08/11 00:56:03;;;;;;;3.90;1.20;;;;;;;17.87;76.47;99925.56;338026;28;5391;-64
2023/08/11 00:56:15;;;;;;;4.18;1.38;;;;;;;17.86;76.29;99923.84;338846;28;4651;-63
2023/08/11 00:56:27;;;;;;;2.63;1.38;;;;;;;17.87;76.23;99925.56;337969;28;11658;-64
2023/08/11 00:56:44;;;;;;;2.47;1.35;;;;;;;17.87;76.50;99930.84;338225;28;18450;-61
2023/08/11 00:56:56;;;;;;;1.73;1.20;;;;;;;17.88;76.29;99928.09;336376;28;19111;-62
2023/08/11 00:57:08;;;;;;;1.40;1.17;;;;;;;17.89;76.43;99929.78;334071;28;18363;-63
2023/08/11 00:57:20;;;;;;;1.80;1.25;;;;;;;17.89;76.71;99927.16;339316;28;5171;-62
2023/08/11 00:57:33;;;;;;;1.95;1.20;;;;;;;17.92;76.40;99928.75;336968;28;18566;-63
2023/08/11 00:57:46;;;;;;;1.52;1.10;;;;;;;17.94;75.89;99932.97;340602;28;5335;-62
2023/08/11 00:57:59;;;;;;;1.42;1.20;;;;;;;17.96;76.37;99925.84;338026;28;18139;-63
2023/08/11 00:58:11;;;;;;;1.70;1.30;;;;;;;17.95;76.49;99933.84;339817;28;4666;-63
2023/08/11 00:58:24;;;;;;;1.63;1.25;;;;;;;17.98;76.24;99930.19;336989;28;18257;-62
2023/08/11 00:58:37;;;;;;;1.45;1.23;;;;;;;17.95;76.13;99928.59;339628;28;4667;-63
2023/08/11 00:58:49;;;;;;;1.35;1.23;;;;;;;17.95;76.13;99928.59;337666;28;18428;-62
2023/08/11 00:59:02;;;;;;;1.83;1.40;;;;;;;17.95;76.15;99929.44;340195;28;4742;-63
2023/08/11 00:59:15;;;;;;;1.90;1.30;;;;;;;17.94;75.90;99932.97;337458;28;18059;-62
2023/08/11 00:59:28;;;;;;;1.70;1.20;;;;;;;17.92;76.06;99929.59;339891;28;12220;-64
2023/08/11 00:59:40;;;;;;;1.77;1.10;;;;;;;17.92;76.06;99934.84;332951;28;18234;-63
2023/08/11 00:59:52;;;;;;;1.73;1.10;;;;;;;17.92;76.16;99931.38;339662;28;4938;-62
2023/08/11 01:00:11;;;;;;;2.17;1.40;;;;;;;17.92;76.09;99932.22;332971;28;17862;-62
2023/08/11 01:00:24;;;;;;;2.90;1.40;;;;;;;17.95;76.33;99929.44;336549;28;17618;-63
2023/08/11 01:00:37;;;;;;;2.95;1.38;;;;;;;17.98;76.17;99933.66;340313;28;4642;-63